Time;durP1;ratioP1;P1;durP2;ratioP2;P2;SDS_P1;SDS_P2;PMS_P1;PMS_P2;Temp;Humidity;BMP_temperature;BMP_pressure;BME280_temperature;BME280_humidity;BME280_pressure;Samples;Min_cycle;Max_cycle;Signal;HPM_P1;HPM_P2
2022/03/01 09:01:09;;;;;;;15.43;9.70;;;;;;;;;;6141322;23;20079;-95
2022/03/01 09:03:35;;;;;;;14.00;9.50;;;;;;;;;;6189700;23;20059;-94
2022/03/01 09:06:02;;;;;;;15.20;10.35;;;;;;;;;;6192070;23;20008;-96
2022/03/01 09:44:32;;;;;;;13.30;9.33;;;;;;;;;;6159345;23;20009;-90
2022/03/01 09:46:57;;;;;;;12.35;8.45;;;;;;;;;;6161274;23;20005;-90
2022/03/01 09:49:23;;;;;;;13.05;9.68;;;;;;;;;;6160741;23;20031;-92
2022/03/01 09:51:50;;;;;;;12.57;8.68;;;;;;;;;;6157613;23;20060;-90
2022/03/01 09:54:15;;;;;;;13.30;9.65;;;;;;;;;;6131326;23;20135;-90
2022/03/01 09:56:40;;;;;;;15.80;10.05;;;;;;;;;;6131486;23;20001;-90
2022/03/01 09:59:06;;;;;;;13.48;9.02;;;;;;;;;;6131839;23;20036;-89
2022/03/01 10:01:32;;;;;;;13.98;9.32;;;;;;;;;;6132087;23;20325;-93
2022/03/01 10:04:11;;;;;;;14.75;9.77;;;;;;;;;;6133110;23;20009;-92
2022/03/01 10:06:42;;;;;;;12.73;8.93;;;;;;;;;;6132525;23;20005;-92
2022/03/01 10:09:23;;;;;;;12.95;9.38;;;;;;;;;;6132085;23;20013;-94
2022/03/01 10:11:49;;;;;;;14.25;8.77;;;;;;;;;;6132314;23;20046;-93
2022/03/01 10:14:26;;;;;;;11.77;8.75;;;;;;;;;;6157851;23;20028;-91
2022/03/01 10:16:51;;;;;;;13.57;8.70;;;;;;;;;;6132250;23;20012;-92
2022/03/01 10:19:19;;;;;;;11.80;8.85;;;;;;;;;;6158563;23;20033;-92
2022/03/01 10:21:49;;;;;;;12.05;8.75;;;;;;;;;;6132443;23;20063;-92
2022/03/01 10:24:20;;;;;;;12.68;8.60;;;;;;;;;;6132039;23;20009;-91
2022/03/01 10:26:45;;;;;;;11.90;8.93;;;;;;;;;;6158560;23;20076;-90
2022/03/01 10:29:11;;;;;;;12.00;8.95;;;;;;;;;;6131923;23;20061;-90
2022/03/01 10:31:36;;;;;;;13.52;8.88;;;;;;;;;;6133139;23;20413;-91
2022/03/01 10:34:09;;;;;;;12.35;8.63;;;;;;;;;;6132917;23;20001;-92
2022/03/01 10:36:34;;;;;;;12.25;9.30;;;;;;;;;;6132978;23;20006;-95
2022/03/01 10:39:12;;;;;;;10.38;8.68;;;;;;;;;;6133534;23;20005;-94
2022/03/01 10:41:48;;;;;;;11.65;8.50;;;;;;;;;;6131986;23;20009;-91
2022/03/01 10:44:15;;;;;;;10.88;8.93;;;;;;;;;;6132215;23;20028;-92
2022/03/01 10:46:46;;;;;;;13.50;8.20;;;;;;;;;;6131323;23;20010;-88
2022/03/01 10:49:17;;;;;;;11.63;8.50;;;;;;;;;;6131728;23;20080;-93
2022/03/01 10:52:03;;;;;;;12.02;8.80;;;;;;;;;;6131499;23;20017;-90
2022/03/01 10:54:31;;;;;;;10.10;7.55;;;;;;;;;;6131764;23;20005;-90
2022/03/01 10:56:58;;;;;;;8.73;7.00;;;;;;;;;;6132675;23;20005;-91
2022/03/01 10:59:26;;;;;;;7.90;6.68;;;;;;;;;;6161149;23;20029;-96
2022/03/01 11:01:52;;;;;;;9.50;7.63;;;;;;;;;;6141230;23;20009;-91
2022/03/01 11:04:21;;;;;;;11.73;8.30;;;;;;;;;;6138153;23;20005;-94
2022/03/01 11:06:47;;;;;;;13.63;9.88;;;;;;;;;;6152665;23;20005;-94
2022/03/01 11:09:13;;;;;;;13.30;10.07;;;;;;;;;;6150712;23;20061;-93
2022/03/01 11:11:40;;;;;;;13.57;10.20;;;;;;;;;;6136838;23;20080;-94
2022/03/01 11:14:07;;;;;;;13.65;9.70;;;;;;;;;;6138762;23;20012;-95
2022/03/01 11:16:45;;;;;;;12.13;8.98;;;;;;;;;;6138953;23;20005;-94
2022/03/01 11:19:36;;;;;;;12.48;9.32;;;;;;;;;;6154728;23;20021;-93
2022/03/01 11:22:01;;;;;;;14.52;9.68;;;;;;;;;;6140493;23;20315;-91
2022/03/01 11:24:28;;;;;;;15.82;9.38;;;;;;;;;;6138873;23;20015;-90
2022/03/01 11:27:04;;;;;;;13.48;8.88;;;;;;;;;;6138157;23;20192;-90
2022/03/01 11:29:37;;;;;;;11.93;8.30;;;;;;;;;;6136591;23;20009;-89
2022/03/01 11:32:11;;;;;;;11.70;8.52;;;;;;;;;;6136652;23;20001;-89
2022/03/01 11:34:37;;;;;;;13.13;8.43;;;;;;;;;;6136517;23;20014;-89
2022/03/01 11:37:02;;;;;;;11.38;7.50;;;;;;;;;;6138521;23;20381;-90
2022/03/01 11:39:30;;;;;;;8.98;7.38;;;;;;;;;;6138851;23;20010;-93
2022/03/01 11:42:17;;;;;;;10.63;7.47;;;;;;;;;;6140365;23;20005;-91
2022/03/01 11:44:52;;;;;;;9.27;6.85;;;;;;;;;;6138991;23;20014;-90
2022/03/01 11:47:28;;;;;;;10.88;7.57;;;;;;;;;;6164941;23;20053;-90
2022/03/01 11:49:54;;;;;;;7.32;6.32;;;;;;;;;;6139627;23;20002;-90
2022/03/01 11:52:22;;;;;;;9.00;6.90;;;;;;;;;;6135399;23;19998;-88
2022/03/01 11:54:50;;;;;;;8.82;6.75;;;;;;;;;;6159807;23;20497;-88
2022/03/01 11:57:17;;;;;;;9.13;6.57;;;;;;;;;;6133180;23;20005;-89
2022/03/01 11:59:44;;;;;;;11.57;7.38;;;;;;;;;;6134784;23;20029;-89
2022/03/01 12:02:11;;;;;;;10.75;7.22;;;;;;;;;;6135045;23;20081;-89
2022/03/01 12:04:48;;;;;;;9.68;7.32;;;;;;;;;;6135447;23;20464;-91
2022/03/01 12:07:23;;;;;;;11.20;7.88;;;;;;;;;;6134564;23;20033;-88
2022/03/01 12:09:57;;;;;;;10.20;8.05;;;;;;;;;;6134379;23;20051;-91
2022/03/01 12:12:32;;;;;;;11.30;8.13;;;;;;;;;;6134716;23;20033;-90
2022/03/01 12:14:57;;;;;;;11.38;8.55;;;;;;;;;;6134599;23;20093;-89
2022/03/01 12:17:23;;;;;;;13.23;8.68;;;;;;;;;;6160571;23;20029;-88
2022/03/01 12:20:01;;;;;;;11.77;8.68;;;;;;;;;;6160523;23;20028;-89
2022/03/01 12:22:26;;;;;;;11.00;8.48;;;;;;;;;;6135014;23;20012;-89
2022/03/01 12:24:52;;;;;;;11.00;8.07;;;;;;;;;;6161531;23;20001;-89
2022/03/01 12:27:18;;;;;;;10.75;7.85;;;;;;;;;;6135385;23;20084;-90
2022/03/01 12:29:47;;;;;;;10.05;7.80;;;;;;;;;;6134884;23;20014;-89
2022/03/01 12:32:13;;;;;;;10.32;7.43;;;;;;;;;;6165553;23;20001;-91
2022/03/01 12:34:40;;;;;;;12.90;8.18;;;;;;;;;;6162889;23;20013;-93
2022/03/01 12:37:09;;;;;;;13.00;8.35;;;;;;;;;;6162453;23;20009;-93
2022/03/01 12:39:36;;;;;;;13.73;8.73;;;;;;;;;;6162421;23;20084;-92
2022/03/01 12:42:04;;;;;;;11.82;7.65;;;;;;;;;;6165938;23;20008;-94
2022/03/01 12:44:31;;;;;;;11.20;8.40;;;;;;;;;;6162101;23;20088;-92
2022/03/01 12:46:58;;;;;;;13.48;8.68;;;;;;;;;;6162293;23;20001;-94
2022/03/01 18:43:51;;;;;;;11.80;7.28;;;;;;;;;;6206450;23;20025;-92
2022/03/01 18:46:17;;;;;;;9.77;7.07;;;;;;;;;;6187473;23;20400;-89
2022/03/01 18:48:43;;;;;;;31.30;15.18;;;;;;;;;;6188579;23;20413;-92
2022/03/01 18:51:09;;;;;;;13.15;8.95;;;;;;;;;;6182098;23;20006;-91
2022/03/01 18:53:35;;;;;;;11.90;7.57;;;;;;;;;;6158073;23;20001;-92
2022/03/01 18:56:02;;;;;;;16.17;9.50;;;;;;;;;;6159628;23;20016;-94
2022/03/01 18:58:28;;;;;;;13.82;9.93;;;;;;;;;;6161015;23;20009;-93
2022/03/01 19:00:54;;;;;;;14.15;9.52;;;;;;;;;;6159047;23;20009;-95
2022/03/01 19:03:21;;;;;;;14.75;8.65;;;;;;;;;;6160330;23;20013;-92
2022/03/01 19:05:47;;;;;;;15.68;9.57;;;;;;;;;;6167324;23;20005;-96
2022/03/01 19:08:14;;;;;;;14.50;8.02;;;;;;;;;;6161712;23;20020;-92
2022/03/01 19:10:40;;;;;;;12.57;8.18;;;;;;;;;;6157134;23;20060;-91
2022/03/01 19:13:07;;;;;;;11.73;7.85;;;;;;;;;;6156697;23;20005;-91
2022/03/01 19:15:33;;;;;;;14.25;9.00;;;;;;;;;;6156700;23;20012;-92
2022/03/01 19:18:06;;;;;;;18.58;10.48;;;;;;;;;;6156631;23;20021;-91
2022/03/01 19:20:32;;;;;;;14.93;9.07;;;;;;;;;;6156610;23;20033;-91
2022/03/01 19:22:58;;;;;;;16.95;9.45;;;;;;;;;;6157914;23;20005;-90
2022/03/01 19:25:24;;;;;;;11.93;8.30;;;;;;;;;;6158149;23;20017;-92
2022/03/01 19:27:50;;;;;;;13.13;9.07;;;;;;;;;;6160266;23;20021;-93
2022/03/01 19:30:18;;;;;;;14.10;8.52;;;;;;;;;;6165757;23;20001;-94
2022/03/01 19:32:44;;;;;;;13.85;8.18;;;;;;;;;;6170509;23;20006;-94
2022/03/01 19:35:12;;;;;;;14.50;9.07;;;;;;;;;;6161770;23;20517;-92
2022/03/01 19:37:38;;;;;;;12.32;8.43;;;;;;;;;;6158863;23;20017;-90
2022/03/01 19:40:06;;;;;;;13.80;8.02;;;;;;;;;;6159437;23;20421;-93
2022/03/01 19:42:32;;;;;;;14.77;8.77;;;;;;;;;;6161410;23;20005;-94
2022/03/01 19:44:58;;;;;;;31.33;15.35;;;;;;;;;;6166907;23;20013;-91
2022/03/01 19:47:24;;;;;;;39.25;21.15;;;;;;;;;;6171487;23;20079;-92
2022/03/01 19:49:49;;;;;;;25.02;13.95;;;;;;;;;;6159741;23;20444;-94
2022/03/01 19:52:15;;;;;;;20.48;13.40;;;;;;;;;;6160008;23;20052;-92
2022/03/01 19:54:42;;;;;;;21.65;12.73;;;;;;;;;;6162721;23;20016;-93
2022/03/01 19:57:12;;;;;;;17.45;11.43;;;;;;;;;;6173854;23;20080;-92
2022/03/01 19:59:38;;;;;;;14.88;10.20;;;;;;;;;;6172479;23;20009;-91
2022/03/01 20:02:10;;;;;;;19.08;10.65;;;;;;;;;;6178736;23;20085;-92
2022/03/01 20:04:42;;;;;;;17.65;10.90;;;;;;;;;;6203859;23;20005;-93
2022/03/01 20:07:09;;;;;;;13.77;9.45;;;;;;;;;;6148748;23;20014;-92
2022/03/01 20:09:37;;;;;;;11.98;7.97;;;;;;;;;;6149482;23;20002;-91
2022/03/01 20:12:08;;;;;;;15.43;10.50;;;;;;;;;;6148249;23;20005;-92
2022/03/01 20:14:34;;;;;;;17.77;10.75;;;;;;;;;;6161434;23;20028;-92
2022/03/01 20:17:03;;;;;;;16.35;10.75;;;;;;;;;;6153767;23;20029;-93
2022/03/01 20:19:39;;;;;;;18.20;11.98;;;;;;;;;;6176439;23;20028;-93
2022/03/01 20:22:13;;;;;;;16.65;10.68;;;;;;;;;;6147209;23;20011;-92
2022/03/01 20:24:41;;;;;;;16.13;10.38;;;;;;;;;;6140571;23;20005;-91
2022/03/01 20:27:09;;;;;;;16.38;11.13;;;;;;;;;;6136286;23;20109;-94
2022/03/01 20:29:36;;;;;;;17.67;10.80;;;;;;;;;;6131028;23;20026;-92
2022/03/01 20:32:03;;;;;;;19.35;11.73;;;;;;;;;;6156790;23;20047;-92
2022/03/01 20:34:35;;;;;;;19.10;12.07;;;;;;;;;;6159951;23;20016;-92
2022/03/01 20:37:06;;;;;;;17.52;11.63;;;;;;;;;;6135747;23;20064;-93
2022/03/01 20:39:33;;;;;;;15.85;10.80;;;;;;;;;;6160089;23;20016;-93
2022/03/01 20:41:59;;;;;;;16.50;9.73;;;;;;;;;;6161152;23;20060;-93
2022/03/01 20:44:26;;;;;;;17.45;10.75;;;;;;;;;;6160644;23;20005;-93
2022/03/01 20:46:55;;;;;;;16.08;9.95;;;;;;;;;;6172689;23;20025;-92
2022/03/01 20:49:27;;;;;;;13.77;9.10;;;;;;;;;;6192076;23;20023;-92
2022/03/01 20:51:54;;;;;;;15.43;9.25;;;;;;;;;;6222315;23;20000;-92
2022/03/01 20:54:21;;;;;;;15.25;9.07;;;;;;;;;;6146475;23;20004;-92
2022/03/01 20:56:48;;;;;;;14.32;9.13;;;;;;;;;;6195537;23;20000;-92
2022/03/01 20:59:21;;;;;;;14.75;9.10;;;;;;;;;;6221502;23;20008;-92
2022/03/01 21:01:49;;;;;;;14.13;9.50;;;;;;;;;;6171819;23;20100;-92
2022/03/01 21:04:17;;;;;;;13.93;8.38;;;;;;;;;;6196600;23;20016;-92
2022/03/01 21:06:42;;;;;;;14.23;8.32;;;;;;;;;;6196153;23;20001;-93
2022/03/01 21:09:09;;;;;;;14.27;8.60;;;;;;;;;;6195086;23;20135;-91
2022/03/01 21:11:39;;;;;;;16.17;10.20;;;;;;;;;;6195577;23;20060;-92
2022/03/01 21:14:07;;;;;;;12.88;8.93;;;;;;;;;;6220941;23;20012;-92
2022/03/01 21:16:36;;;;;;;14.18;9.18;;;;;;;;;;6222461;23;20011;-93
2022/03/01 21:19:03;;;;;;;13.00;8.40;;;;;;;;;;6223779;23;20007;-93
2022/03/01 21:21:29;;;;;;;13.15;8.63;;;;;;;;;;6197529;23;20015;-93
2022/03/01 21:23:55;;;;;;;12.55;8.40;;;;;;;;;;6203303;23;20000;-95
2022/03/01 21:26:21;;;;;;;17.25;9.55;;;;;;;;;;6205467;23;20011;-93
2022/03/01 21:28:48;;;;;;;13.60;9.23;;;;;;;;;;6206436;23;20013;-93
2022/03/01 21:31:15;;;;;;;13.68;8.82;;;;;;;;;;6208457;23;20008;-96
2022/03/01 21:33:42;;;;;;;20.67;11.40;;;;;;;;;;6212015;23;20008;-94
2022/03/01 21:36:08;;;;;;;15.05;9.35;;;;;;;;;;6209078;23;20008;-95
2022/03/01 21:38:34;;;;;;;19.60;10.48;;;;;;;;;;6207248;23;20087;-95
2022/03/01 21:40:59;;;;;;;15.27;9.75;;;;;;;;;;6208532;23;20043;-93
2022/03/01 21:43:25;;;;;;;14.82;10.27;;;;;;;;;;6209530;23;20012;-94
2022/03/01 21:45:53;;;;;;;16.45;9.90;;;;;;;;;;6207817;23;20446;-95
2022/03/01 21:48:21;;;;;;;16.30;10.23;;;;;;;;;;6186566;23;20063;-91
2022/03/01 21:50:48;;;;;;;17.00;10.50;;;;;;;;;;6207567;23;20368;-92
2022/03/01 21:53:14;;;;;;;19.85;12.07;;;;;;;;;;6183316;23;20055;-91
2022/03/01 21:55:41;;;;;;;22.25;13.40;;;;;;;;;;6181616;23;20009;-92
2022/03/01 21:58:06;;;;;;;21.73;13.18;;;;;;;;;;6196412;23;20008;-92
2022/03/01 22:00:34;;;;;;;17.48;11.93;;;;;;;;;;6194371;23;20306;-91
2022/03/01 22:03:04;;;;;;;20.98;11.02;;;;;;;;;;6220296;23;20027;-92
2022/03/01 22:05:30;;;;;;;17.77;11.25;;;;;;;;;;6193198;23;20003;-92
2022/03/01 22:07:55;;;;;;;21.20;12.65;;;;;;;;;;6193914;23;20021;-91
2022/03/01 22:10:21;;;;;;;21.27;13.23;;;;;;;;;;6193804;23;20012;-91
2022/03/01 22:12:50;;;;;;;18.92;13.00;;;;;;;;;;6192031;23;20000;-92
2022/03/01 22:15:16;;;;;;;20.60;13.15;;;;;;;;;;6193463;23;20008;-92
2022/03/01 22:17:44;;;;;;;19.80;13.00;;;;;;;;;;6192747;23;20016;-93
2022/03/01 22:20:11;;;;;;;21.33;12.98;;;;;;;;;;6193554;23;20516;-92
2022/03/01 22:22:38;;;;;;;21.58;12.68;;;;;;;;;;6193239;23;20451;-93
2022/03/01 22:25:08;;;;;;;18.60;11.27;;;;;;;;;;6193213;23;20000;-92
2022/03/01 22:27:34;;;;;;;16.23;10.70;;;;;;;;;;6192246;23;20036;-91
2022/03/01 22:30:00;;;;;;;17.17;9.95;;;;;;;;;;6191378;23;20071;-92
2022/03/01 22:32:25;;;;;;;21.02;12.38;;;;;;;;;;6192605;23;20062;-95
2022/03/01 22:34:54;;;;;;;20.95;12.15;;;;;;;;;;6193720;23;20008;-92
2022/03/01 22:37:20;;;;;;;22.10;13.07;;;;;;;;;;6194349;23;20008;-92
2022/03/01 22:39:46;;;;;;;22.35;12.57;;;;;;;;;;6198711;23;20019;-92
2022/03/01 22:42:13;;;;;;;18.42;11.70;;;;;;;;;;6203020;23;20008;-92
2022/03/01 22:44:42;;;;;;;17.88;11.00;;;;;;;;;;6202585;23;20044;-94
